createdAt,value
2023-04-16T00:01:31.853Z,8.92
2023-04-16T00:03:59.957Z,8.92
2023-04-16T00:06:28.744Z,8.93
2023-04-16T00:08:56.360Z,8.92
2023-04-16T00:11:24.047Z,8.91
2023-04-16T00:13:51.717Z,8.90
2023-04-16T00:16:19.497Z,8.89
2023-04-16T00:18:47.248Z,8.89
2023-04-16T00:21:14.922Z,8.87
2023-04-16T00:23:42.664Z,8.87
2023-04-16T00:26:10.277Z,8.87
2023-04-16T00:28:37.908Z,8.87
2023-04-16T00:31:05.670Z,8.87
2023-04-16T00:33:33.591Z,8.86
2023-04-16T00:36:01.222Z,8.87
2023-04-16T00:38:30.478Z,8.87
2023-04-16T00:40:58.869Z,8.88
2023-04-16T00:43:27.513Z,8.88
2023-04-16T00:45:57.603Z,8.88
2023-04-16T00:48:27.982Z,8.86
2023-04-16T00:50:56.422Z,8.86
2023-04-16T00:53:24.518Z,8.84
2023-04-16T00:55:52.557Z,8.84
2023-04-16T00:58:21.897Z,8.81
2023-04-16T01:00:51.518Z,8.80
2023-04-16T01:03:19.855Z,8.78
2023-04-16T01:05:49.393Z,8.79
2023-04-16T01:08:19.049Z,8.80
2023-04-16T01:10:47.272Z,8.82
2023-04-16T01:13:15.293Z,8.84
2023-04-16T01:15:42.996Z,8.84
2023-04-16T01:18:18.849Z,8.84
2023-04-16T01:20:47.977Z,8.84
2023-04-16T01:23:18.382Z,8.84
2023-04-16T01:25:47.628Z,8.80
2023-04-16T01:28:15.658Z,8.79
2023-04-16T01:30:43.346Z,8.80
2023-04-16T01:33:12.943Z,8.79
2023-04-16T01:35:41.726Z,8.80
2023-04-16T01:38:10.372Z,8.79
2023-04-16T01:40:38.036Z,8.79
2023-04-16T01:43:05.682Z,8.79
2023-04-16T01:45:34.300Z,8.76
2023-04-16T01:48:03.552Z,8.76
2023-04-16T01:50:32.024Z,8.77
2023-04-16T01:53:03.114Z,8.77
2023-04-16T01:55:34.402Z,8.78
2023-04-16T01:58:02.358Z,8.78
2023-04-16T02:00:30.507Z,8.76
2023-04-16T02:02:58.167Z,8.77
2023-04-16T02:05:26.173Z,8.77
2023-04-16T02:07:54.195Z,8.76
2023-04-16T02:10:22.328Z,8.74
2023-04-16T02:12:51.028Z,8.74
2023-04-16T02:15:18.826Z,8.74
2023-04-16T02:17:48.042Z,8.74
2023-04-16T02:20:15.934Z,8.73
2023-04-16T02:22:43.862Z,8.69
2023-04-16T02:25:11.738Z,8.69
2023-04-16T02:27:39.401Z,8.70
2023-04-16T02:30:08.001Z,8.70
2023-04-16T02:32:35.764Z,8.69
2023-04-16T02:35:04.166Z,8.68
2023-04-16T02:37:31.745Z,8.67
2023-04-16T02:39:59.659Z,8.67
2023-04-16T02:42:28.484Z,8.65
2023-04-16T02:44:56.067Z,8.64
2023-04-16T02:47:23.607Z,8.65
2023-04-16T02:49:51.313Z,8.65
2023-04-16T02:52:19.075Z,8.65
2023-04-16T02:54:46.804Z,8.66
2023-04-16T02:57:14.321Z,8.66
2023-04-16T02:59:42.057Z,8.64
2023-04-16T03:02:09.656Z,8.63
2023-04-16T03:04:37.333Z,8.64
2023-04-16T03:07:05.495Z,8.63
2023-04-16T03:09:33.106Z,8.63
2023-04-16T03:12:02.461Z,8.63
2023-04-16T03:14:30.788Z,8.63
2023-04-16T03:16:59.052Z,8.62
2023-04-16T03:19:26.762Z,8.61
2023-04-16T03:21:54.464Z,8.59
2023-04-16T03:24:22.328Z,8.59
2023-04-16T03:26:49.920Z,8.60
2023-04-16T03:29:17.611Z,8.58
2023-04-16T03:31:45.202Z,8.59
2023-04-16T03:34:12.843Z,8.60
2023-04-16T03:36:41.066Z,8.60
2023-04-16T03:39:10.157Z,8.60
2023-04-16T03:41:38.240Z,8.62
2023-04-16T03:44:05.854Z,8.61
2023-04-16T03:46:33.441Z,8.59
2023-04-16T03:49:01.630Z,8.58
2023-04-16T03:51:29.530Z,8.54
2023-04-16T03:53:57.259Z,8.51
2023-04-16T03:56:25.006Z,8.49
2023-04-16T03:58:52.599Z,8.48
2023-04-16T04:01:20.210Z,8.48
2023-04-16T04:03:48.046Z,8.47
2023-04-16T04:06:16.459Z,8.46
2023-04-16T04:08:44.036Z,8.44
2023-04-16T04:11:11.718Z,8.44
2023-04-16T04:13:39.452Z,8.42
2023-04-16T04:16:07.461Z,8.40
2023-04-16T04:18:35.405Z,8.39
2023-04-16T04:21:08.107Z,8.40
2023-04-16T04:23:36.648Z,8.40
2023-04-16T04:26:05.628Z,8.40
2023-04-16T04:28:34.374Z,8.42
2023-04-16T04:31:02.318Z,8.41
2023-04-16T04:33:29.970Z,8.43
2023-04-16T04:35:57.606Z,8.45
2023-04-16T04:38:25.645Z,8.47
2023-04-16T04:40:53.305Z,8.49
2023-04-16T04:43:21.111Z,8.49
2023-04-16T04:45:49.506Z,8.52
2023-04-16T04:48:17.712Z,8.53
2023-04-16T04:50:46.308Z,8.54
2023-04-16T04:53:15.155Z,8.56
2023-04-16T04:55:42.858Z,8.55
2023-04-16T04:58:10.446Z,8.58
2023-04-16T05:00:40.226Z,8.62
2023-04-16T05:03:11.507Z,8.64
2023-04-16T05:05:40.985Z,8.68
2023-04-16T05:08:08.633Z,8.71
2023-04-16T05:10:36.512Z,8.73
2023-04-16T05:13:04.241Z,8.76
2023-04-16T05:15:31.798Z,8.78
2023-04-16T05:17:59.600Z,8.79
2023-04-16T05:20:27.324Z,8.80
2023-04-16T05:22:55.370Z,8.77
2023-04-16T05:25:23.252Z,8.78
2023-04-16T05:27:50.855Z,8.78
2023-04-16T05:30:19.158Z,8.81
2023-04-16T05:32:46.863Z,8.86
2023-04-16T05:35:17.216Z,8.87
2023-04-16T05:37:45.220Z,8.87
2023-04-16T05:40:14.402Z,8.88
2023-04-16T05:42:42.155Z,8.92
2023-04-16T05:45:10.696Z,8.98
2023-04-16T05:47:38.291Z,9.03
2023-04-16T05:50:06.581Z,9.09
2023-04-16T05:52:34.326Z,9.16
2023-04-16T05:55:02.125Z,9.22
2023-04-16T05:57:30.361Z,9.27
2023-04-16T05:59:58.086Z,9.30
2023-04-16T06:02:26.262Z,9.29
2023-04-16T06:04:54.186Z,9.31
2023-04-16T06:07:22.745Z,9.34
2023-04-16T06:09:50.498Z,9.36
2023-04-16T06:12:18.250Z,9.38
2023-04-16T06:14:45.940Z,9.37
2023-04-16T06:17:13.768Z,9.38
2023-04-16T06:19:41.532Z,9.39
2023-04-16T06:22:09.134Z,9.39
2023-04-16T06:24:37.027Z,9.38
2023-04-16T06:27:04.807Z,9.37
2023-04-16T06:29:40.702Z,9.36
2023-04-16T06:32:09.949Z,9.35
2023-04-16T06:34:39.364Z,9.35
2023-04-16T06:37:09.860Z,9.37
2023-04-16T06:39:38.710Z,9.39
2023-04-16T06:42:06.377Z,9.38
2023-04-16T06:44:36.858Z,9.40
2023-04-16T06:47:04.762Z,9.41
2023-04-16T06:49:32.568Z,9.44
2023-04-16T06:52:00.426Z,9.46
2023-04-16T06:54:28.134Z,9.49
2023-04-16T06:56:56.043Z,9.51
2023-04-16T06:59:23.880Z,9.56
2023-04-16T07:01:52.793Z,9.63
2023-04-16T07:04:21.160Z,9.69
2023-04-16T07:06:49.050Z,9.74
2023-04-16T07:09:18.108Z,9.78
2023-04-16T07:11:46.037Z,9.83
2023-04-16T07:14:13.945Z,9.90
2023-04-16T07:16:41.727Z,9.94
2023-04-16T07:19:09.920Z,9.95
2023-04-16T07:21:37.957Z,9.90
2023-04-16T07:24:05.975Z,9.89
2023-04-16T07:26:33.755Z,9.90
2023-04-16T07:29:01.628Z,9.92
2023-04-16T07:31:29.525Z,9.92
2023-04-16T07:33:58.244Z,9.94
2023-04-16T07:36:28.366Z,9.99
2023-04-16T07:38:56.252Z,10.02
2023-04-16T07:41:24.324Z,10.04
2023-04-16T07:43:52.352Z,10.10
2023-04-16T07:46:21.882Z,10.16
2023-04-16T07:48:51.324Z,10.19
2023-04-16T07:51:23.908Z,10.21
2023-04-16T07:53:51.722Z,10.24
2023-04-16T07:56:23.995Z,10.30
2023-04-16T07:58:51.896Z,10.37
2023-04-16T08:01:19.951Z,10.42
2023-04-16T08:03:47.890Z,10.45
2023-04-16T08:06:16.064Z,10.51
2023-04-16T08:08:43.869Z,10.60
2023-04-16T08:11:11.734Z,10.70
2023-04-16T08:13:39.576Z,10.78
2023-04-16T08:16:07.768Z,10.84
2023-04-16T08:18:36.998Z,10.86
2023-04-16T08:21:04.958Z,10.92
2023-04-16T08:23:33.375Z,10.97
2023-04-16T08:26:02.125Z,11.06
2023-04-16T08:28:29.978Z,11.15
2023-04-16T08:30:57.892Z,11.27
2023-04-16T08:33:25.667Z,11.34
2023-04-16T08:35:53.531Z,11.39
2023-04-16T08:38:21.240Z,11.40
2023-04-16T08:40:48.954Z,11.39
2023-04-16T08:43:19.317Z,11.38
2023-04-16T08:45:47.630Z,11.43
2023-04-16T08:48:15.776Z,11.48
2023-04-16T08:50:44.986Z,11.55
2023-04-16T08:53:18.566Z,11.64
2023-04-16T08:55:49.090Z,11.69
2023-04-16T08:58:22.784Z,11.74
2023-04-16T09:00:51.089Z,11.82
2023-04-16T09:03:21.871Z,11.96
2023-04-16T09:05:50.334Z,12.06
2023-04-16T09:08:18.561Z,12.11
2023-04-16T09:10:46.974Z,12.16
2023-04-16T09:13:16.960Z,12.18
2023-04-16T09:15:45.224Z,12.15
2023-04-16T09:18:13.026Z,12.09
2023-04-16T09:20:40.758Z,12.10
2023-04-16T09:23:11.034Z,12.11
2023-04-16T09:25:38.709Z,12.10
2023-04-16T09:28:06.712Z,12.08
2023-04-16T09:30:34.887Z,12.06
2023-04-16T09:33:23.292Z,12.03
2023-04-16T09:35:53.046Z,11.97
2023-04-16T09:38:21.770Z,11.95
2023-04-16T09:41:07.324Z,11.97
2023-04-16T09:43:35.707Z,11.99
2023-04-16T09:46:08.084Z,11.99
2023-04-16T09:48:38.211Z,12.03
2023-04-16T09:51:07.226Z,12.09
2023-04-16T09:53:35.568Z,12.16
2023-04-16T09:56:06.172Z,12.20
2023-04-16T09:58:37.390Z,12.24
2023-04-16T10:01:10.941Z,12.31
2023-04-16T10:03:40.991Z,12.38
2023-04-16T10:06:18.640Z,12.45
2023-04-16T10:08:52.803Z,12.51
2023-04-16T10:11:21.349Z,12.51
2023-04-16T10:13:49.361Z,12.52
2023-04-16T10:16:18.124Z,12.53
2023-04-16T10:18:48.195Z,12.51
2023-04-16T10:21:16.658Z,12.51
2023-04-16T10:23:44.995Z,12.52
2023-04-16T10:26:14.081Z,12.53
2023-04-16T10:28:44.028Z,12.54
2023-04-16T10:31:13.650Z,12.55
2023-04-16T10:33:42.905Z,12.54
2023-04-16T10:36:13.036Z,12.54
2023-04-16T10:38:45.411Z,12.60
2023-04-16T10:41:13.971Z,12.66
2023-04-16T10:43:44.787Z,12.72
2023-04-16T10:46:37.875Z,12.75
2023-04-16T10:49:25.654Z,12.71
2023-04-16T10:51:57.669Z,12.63
2023-04-16T10:54:29.234Z,12.62
2023-04-16T10:56:59.178Z,12.60
2023-04-16T10:59:34.189Z,12.61
2023-04-16T11:02:07.594Z,12.59
2023-04-16T11:04:37.994Z,12.55
2023-04-16T11:07:14.897Z,12.51
2023-04-16T11:10:02.562Z,12.52
2023-04-16T11:12:47.498Z,12.54
2023-04-16T11:15:16.557Z,12.52
2023-04-16T11:17:51.935Z,12.51
2023-04-16T11:20:24.857Z,12.49
2023-04-16T11:22:54.642Z,12.46
2023-04-16T11:25:27.710Z,12.40
2023-04-16T11:27:58.448Z,12.36
2023-04-16T11:30:42.471Z,12.35
2023-04-16T11:33:11.954Z,12.29
2023-04-16T11:35:41.270Z,12.25
2023-04-16T11:38:09.209Z,12.23
2023-04-16T11:40:37.128Z,12.23
2023-04-16T11:43:21.043Z,12.20
2023-04-16T11:46:24.073Z,12.19
2023-04-16T11:48:56.283Z,12.12
2023-04-16T11:51:24.336Z,12.11
2023-04-16T11:53:55.902Z,12.13
2023-04-16T11:56:34.889Z,12.15
2023-04-16T11:59:10.993Z,12.17
2023-04-16T12:01:41.199Z,12.22
2023-04-16T12:04:09.169Z,12.25
2023-04-16T12:06:37.857Z,12.27
2023-04-16T12:09:23.937Z,12.27
2023-04-16T12:11:51.593Z,12.30
2023-04-16T12:14:19.483Z,12.32
2023-04-16T12:16:47.729Z,12.32
2023-04-16T12:19:15.920Z,12.35
2023-04-16T12:21:49.909Z,12.35
2023-04-16T12:24:20.928Z,12.34
2023-04-16T12:26:56.121Z,12.34
2023-04-16T12:29:26.329Z,12.33
2023-04-16T12:31:55.702Z,12.32
2023-04-16T12:34:29.099Z,12.29
2023-04-16T12:37:12.575Z,12.27
2023-04-16T12:39:40.318Z,12.26
2023-04-16T12:42:11.088Z,12.25
2023-04-16T12:44:38.799Z,12.26
2023-04-16T12:47:06.594Z,12.27
2023-04-16T12:49:36.128Z,12.28
2023-04-16T12:52:04.158Z,12.30
2023-04-16T12:54:33.380Z,12.33
2023-04-16T12:57:01.135Z,12.36
2023-04-16T12:59:28.691Z,12.36
2023-04-16T13:01:56.333Z,12.35
2023-04-16T13:04:25.676Z,12.37
2023-04-16T13:06:54.059Z,12.36
2023-04-16T13:09:22.032Z,12.37
2023-04-16T13:11:49.856Z,12.38
2023-04-16T13:14:17.452Z,12.40
2023-04-16T13:16:45.540Z,12.42
2023-04-16T13:19:13.573Z,12.46
2023-04-16T13:21:41.943Z,12.48
2023-04-16T13:24:09.592Z,12.51
2023-04-16T13:26:37.325Z,12.54
2023-04-16T13:29:04.881Z,12.57
2023-04-16T13:31:32.779Z,12.58
2023-04-16T13:34:01.216Z,12.58
2023-04-16T13:36:30.632Z,12.55
2023-04-16T13:38:59.480Z,12.55
2023-04-16T13:41:27.557Z,12.56
2023-04-16T13:43:55.442Z,12.52
2023-04-16T13:46:23.211Z,12.48
2023-04-16T13:48:51.007Z,12.45
2023-04-16T13:51:18.679Z,12.42
2023-04-16T13:53:46.308Z,12.41
2023-04-16T13:56:14.464Z,12.39
2023-04-16T13:58:42.667Z,12.40
2023-04-16T14:01:10.447Z,12.42
2023-04-16T14:03:38.859Z,12.42
2023-04-16T14:06:07.081Z,12.39
2023-04-16T14:08:34.637Z,12.39
2023-04-16T14:11:02.362Z,12.34
2023-04-16T14:13:29.937Z,12.29
2023-04-16T14:15:57.793Z,12.24
2023-04-16T14:18:25.473Z,12.20
2023-04-16T14:20:53.272Z,12.14
2023-04-16T14:23:21.234Z,12.10
2023-04-16T14:25:48.870Z,12.09
2023-04-16T14:28:17.190Z,12.09
2023-04-16T14:30:45.058Z,12.09
2023-04-16T14:33:12.731Z,12.07
2023-04-16T14:35:40.297Z,12.05
2023-04-16T14:38:07.953Z,12.04
2023-04-16T14:40:35.720Z,12.04
2023-04-16T14:43:03.423Z,12.01
2023-04-16T14:45:32.767Z,11.95
2023-04-16T14:48:00.550Z,11.91
2023-04-16T14:50:28.154Z,11.89
2023-04-16T14:52:56.043Z,11.88
2023-04-16T14:55:23.687Z,11.86
2023-04-16T14:57:51.467Z,11.84
2023-04-16T15:00:19.364Z,11.82
2023-04-16T15:02:48.209Z,11.80
2023-04-16T15:05:16.636Z,11.80
2023-04-16T15:07:44.293Z,11.80
2023-04-16T15:10:12.938Z,11.80
2023-04-16T15:12:40.942Z,11.80
2023-04-16T15:15:09.556Z,11.78
2023-04-16T15:17:37.386Z,11.79
2023-04-16T15:20:08.532Z,11.80
2023-04-16T15:22:37.093Z,11.83
2023-04-16T15:25:06.336Z,11.86
2023-04-16T15:27:33.984Z,11.87
2023-04-16T15:30:01.809Z,11.88
2023-04-16T15:32:30.999Z,11.91
2023-04-16T15:34:59.976Z,11.92
2023-04-16T15:37:27.786Z,11.92
2023-04-16T15:39:55.373Z,11.93
2023-04-16T15:42:24.272Z,11.93
2023-04-16T15:44:52.213Z,11.92
2023-04-16T15:47:19.852Z,11.92
2023-04-16T15:49:47.422Z,11.90
2023-04-16T15:52:15.889Z,11.90
2023-04-16T15:54:43.568Z,11.89
2023-04-16T15:57:11.150Z,11.88
2023-04-16T15:59:38.782Z,11.86
2023-04-16T16:02:06.519Z,11.85
2023-04-16T16:04:34.639Z,11.83
2023-04-16T16:07:04.055Z,11.80
2023-04-16T16:09:31.947Z,11.76
2023-04-16T16:11:59.791Z,11.73
2023-04-16T16:14:27.326Z,11.72
2023-04-16T16:16:55.025Z,11.71
2023-04-16T16:19:22.653Z,11.68
2023-04-16T16:21:50.606Z,11.65
2023-04-16T16:24:18.291Z,11.61
2023-04-16T16:26:45.979Z,11.57
2023-04-16T16:29:13.717Z,11.53
2023-04-16T16:31:41.383Z,11.48
2023-04-16T16:34:14.725Z,11.47
2023-04-16T16:36:48.620Z,11.48
2023-04-16T16:39:16.459Z,11.48
2023-04-16T16:41:45.639Z,11.46
2023-04-16T16:44:13.228Z,11.46
2023-04-16T16:46:41.192Z,11.45
2023-04-16T16:49:10.373Z,11.45
2023-04-16T16:51:38.335Z,11.44
2023-04-16T16:54:07.485Z,11.42
2023-04-16T16:56:35.053Z,11.35
2023-04-16T16:59:03.024Z,11.28
2023-04-16T17:01:32.613Z,11.21
2023-04-16T17:04:00.344Z,11.13
2023-04-16T17:06:28.687Z,11.06
2023-04-16T17:08:56.411Z,10.97
2023-04-16T17:11:27.265Z,10.89
2023-04-16T17:13:55.026Z,10.80
2023-04-16T17:16:24.259Z,10.73
2023-04-16T17:18:51.955Z,10.66
2023-04-16T17:21:19.786Z,10.59
2023-04-16T17:23:47.382Z,10.53
2023-04-16T17:26:15.210Z,10.46
2023-04-16T17:28:42.829Z,10.39
2023-04-16T17:31:11.497Z,10.32
2023-04-16T17:33:39.428Z,10.23
2023-04-16T17:36:07.893Z,10.14
2023-04-16T17:38:35.507Z,10.05
2023-04-16T17:41:03.072Z,9.97
2023-04-16T17:43:30.698Z,9.91
2023-04-16T17:45:58.621Z,9.85
2023-04-16T17:48:26.438Z,9.80
2023-04-16T17:50:55.444Z,9.77
2023-04-16T17:53:23.017Z,9.74
2023-04-16T17:55:56.005Z,9.73
2023-04-16T17:58:26.533Z,9.72
2023-04-16T18:00:54.146Z,9.70
2023-04-16T18:03:22.362Z,9.69
2023-04-16T18:05:50.374Z,9.68
2023-04-16T18:08:18.037Z,9.67
2023-04-16T18:10:45.779Z,9.68
2023-04-16T18:13:13.526Z,9.67
2023-04-16T18:15:41.871Z,9.66
2023-04-16T18:18:09.905Z,9.64
2023-04-16T18:20:37.527Z,9.64
2023-04-16T18:23:05.352Z,9.63
2023-04-16T18:25:35.238Z,9.64
2023-04-16T18:28:03.951Z,9.64
2023-04-16T18:30:32.621Z,9.64
2023-04-16T18:33:25.912Z,9.64
2023-04-16T18:35:48.029Z,9.61
2023-04-16T18:38:15.783Z,9.57
2023-04-16T18:40:43.639Z,9.53
2023-04-16T18:43:11.238Z,9.49
2023-04-16T18:45:40.044Z,9.44
2023-04-16T18:48:07.834Z,9.38
2023-04-16T18:50:35.641Z,9.30
2023-04-16T18:53:03.448Z,9.23
2023-04-16T18:55:31.342Z,9.17
2023-04-16T18:57:59.027Z,9.09
2023-04-16T19:00:26.769Z,9.01
2023-04-16T19:02:54.434Z,8.94
2023-04-16T19:05:23.495Z,8.89
2023-04-16T19:07:51.036Z,8.83
2023-04-16T19:10:18.728Z,8.79
2023-04-16T19:12:46.436Z,8.75
2023-04-16T19:15:14.792Z,8.72
2023-04-16T19:17:42.790Z,8.69
2023-04-16T19:20:11.758Z,8.62
2023-04-16T19:22:39.686Z,8.56
2023-04-16T19:25:07.841Z,8.49
2023-04-16T19:27:36.247Z,8.43
2023-04-16T19:30:05.140Z,8.37
2023-04-16T19:32:34.864Z,8.33
2023-04-16T19:35:03.912Z,8.26
2023-04-16T19:37:31.648Z,8.20
2023-04-16T19:39:59.758Z,8.13
2023-04-16T19:42:27.657Z,8.08
2023-04-16T19:44:55.232Z,8.03
2023-04-16T19:47:24.446Z,7.98
2023-04-16T19:49:52.245Z,7.93
2023-04-16T19:52:19.854Z,7.89
2023-04-16T19:54:48.218Z,7.86
2023-04-16T19:57:16.016Z,7.85
2023-04-16T19:59:43.698Z,7.82
2023-04-16T20:02:11.456Z,7.80
2023-04-16T20:04:39.133Z,7.78
2023-04-16T20:07:06.903Z,7.77
2023-04-16T20:09:34.631Z,7.78
2023-04-16T20:12:02.688Z,7.81
2023-04-16T20:14:30.281Z,7.85
2023-04-16T20:16:57.892Z,7.91
2023-04-16T20:19:30.592Z,7.96
2023-04-16T20:21:58.433Z,8.02
2023-04-16T20:24:27.227Z,8.07
2023-04-16T20:26:54.975Z,8.11
2023-04-16T20:29:22.858Z,8.17
2023-04-16T20:31:50.831Z,8.23
2023-04-16T20:34:18.427Z,8.29
2023-04-16T20:36:45.997Z,8.35
2023-04-16T20:39:13.718Z,8.40
2023-04-16T20:41:45.594Z,8.44
2023-04-16T20:44:18.224Z,8.47
2023-04-16T20:46:49.579Z,8.51
2023-04-16T20:49:18.568Z,8.56
2023-04-16T20:51:46.170Z,8.56
2023-04-16T20:54:13.752Z,8.58
2023-04-16T20:56:43.447Z,8.60
2023-04-16T20:59:13.412Z,8.63
2023-04-16T21:01:41.227Z,8.66
2023-04-16T21:04:09.097Z,8.69
2023-04-16T21:06:38.840Z,8.72
2023-04-16T21:09:06.548Z,8.76
2023-04-16T21:11:35.453Z,8.79
2023-04-16T21:14:05.460Z,8.83
2023-04-16T21:16:33.168Z,8.85
2023-04-16T21:19:00.817Z,8.87
2023-04-16T21:21:29.806Z,8.89
2023-04-16T21:23:59.146Z,8.91
2023-04-16T21:26:26.863Z,8.93
2023-04-16T21:28:55.207Z,8.94
2023-04-16T21:31:24.114Z,8.96
2023-04-16T21:33:51.723Z,8.97
2023-04-16T21:36:19.305Z,8.99
2023-04-16T21:38:47.489Z,9.01
2023-04-16T21:41:15.067Z,9.03
2023-04-16T21:43:42.756Z,9.04
2023-04-16T21:46:10.546Z,9.06
2023-04-16T21:48:38.908Z,9.07
2023-04-16T21:51:06.950Z,9.08
2023-04-16T21:53:34.956Z,9.08
2023-04-16T21:56:04.170Z,9.08
2023-04-16T21:58:31.761Z,9.09
2023-04-16T22:00:59.266Z,9.10
2023-04-16T22:03:28.356Z,9.10
2023-04-16T22:06:02.661Z,9.11
2023-04-16T22:08:30.652Z,9.12
2023-04-16T22:11:01.571Z,9.12
2023-04-16T22:13:33.930Z,9.13
2023-04-16T22:16:01.903Z,9.12
2023-04-16T22:18:33.743Z,9.12
2023-04-16T22:21:01.524Z,9.13
2023-04-16T22:23:29.914Z,9.13
2023-04-16T22:25:57.704Z,9.13
2023-04-16T22:28:25.369Z,9.13
2023-04-16T22:30:53.036Z,9.13
2023-04-16T22:33:20.766Z,9.13
2023-04-16T22:35:48.389Z,9.14
2023-04-16T22:38:16.576Z,9.16
2023-04-16T22:40:48.995Z,9.19
2023-04-16T22:43:18.242Z,9.19
2023-04-16T22:45:48.666Z,9.17
2023-04-16T22:48:16.348Z,9.18
2023-04-16T22:50:51.060Z,9.20
2023-04-16T22:53:19.294Z,9.21
2023-04-16T22:55:46.909Z,9.22
2023-04-16T22:58:14.600Z,9.21
2023-04-16T23:00:42.878Z,9.21
2023-04-16T23:03:10.589Z,9.22
2023-04-16T23:05:38.259Z,9.23
2023-04-16T23:08:07.263Z,9.23
2023-04-16T23:10:35.674Z,9.23
2023-04-16T23:13:03.580Z,9.22
2023-04-16T23:15:31.493Z,9.22
2023-04-16T23:17:59.193Z,9.22
2023-04-16T23:20:28.739Z,9.22
2023-04-16T23:22:56.364Z,9.21
2023-04-16T23:25:25.819Z,9.20
2023-04-16T23:27:53.332Z,9.18
2023-04-16T23:30:20.929Z,9.17
2023-04-16T23:32:48.904Z,9.16
2023-04-16T23:35:23.232Z,9.16
2023-04-16T23:37:51.321Z,9.15
2023-04-16T23:40:18.971Z,9.14
2023-04-16T23:42:46.531Z,9.13
2023-04-16T23:45:14.354Z,9.12
2023-04-16T23:47:42.974Z,9.12
2023-04-16T23:50:11.146Z,9.12
2023-04-16T23:52:39.083Z,9.12
2023-04-16T23:55:06.986Z,9.13
2023-04-16T23:57:34.580Z,9.13
